sensor_id;sensor_type;location;lat;lon;timestamp;pressure;altitude;pressure_sealevel;temperature;humidity
22605;BME280;11469;49.024;8.246;2023-08-06T00:01:26;99542.31;;;16.37;100.00
22605;BME280;11469;49.024;8.246;2023-08-06T00:03:51;99538.34;;;16.31;100.00
22605;BME280;11469;49.024;8.246;2023-08-06T00:06:16;99546.00;;;16.34;100.00
22605;BME280;11469;49.024;8.246;2023-08-06T00:08:42;99536.78;;;16.26;100.00
22605;BME280;11469;49.024;8.246;2023-08-06T00:11:07;99529.59;;;16.18;100.00
22605;BME280;11469;49.024;8.246;2023-08-06T00:13:33;99524.78;;;16.15;100.00
22605;BME280;11469;49.024;8.246;2023-08-06T00:16:11;99535.34;;;16.11;100.00
22605;BME280;11469;49.024;8.246;2023-08-06T00:18:37;99534.16;;;16.08;100.00
22605;BME280;11469;49.024;8.246;2023-08-06T00:21:02;99522.50;;;16.06;100.00
22605;BME280;11469;49.024;8.246;2023-08-06T00:23:28;99526.53;;;16.05;100.00
22605;BME280;11469;49.024;8.246;2023-08-06T00:25:53;99533.06;;;15.99;100.00
22605;BME280;11469;49.024;8.246;2023-08-06T00:28:18;99527.41;;;15.99;100.00
22605;BME280;11469;49.024;8.246;2023-08-06T00:30:44;99523.78;;;15.98;100.00
22605;BME280;11469;49.024;8.246;2023-08-06T00:33:09;99510.03;;;16.00;100.00
22605;BME280;11469;49.024;8.246;2023-08-06T00:35:34;99510.81;;;16.04;100.00
22605;BME280;11469;49.024;8.246;2023-08-06T00:38:00;99509.16;;;16.07;100.00
22605;BME280;11469;49.024;8.246;2023-08-06T00:40:25;99506.69;;;16.09;100.00
22605;BME280;11469;49.024;8.246;2023-08-06T00:42:53;99515.13;;;16.12;100.00
22605;BME280;11469;49.024;8.246;2023-08-06T00:45:19;99508.66;;;16.12;100.00
22605;BME280;11469;49.024;8.246;2023-08-06T00:47:44;99519.09;;;16.18;100.00
22605;BME280;11469;49.024;8.246;2023-08-06T00:50:11;99509.03;;;16.17;100.00
22605;BME280;11469;49.024;8.246;2023-08-06T00:52:37;99506.22;;;16.14;100.00
22605;BME280;11469;49.024;8.246;2023-08-06T00:55:03;99502.53;;;16.20;100.00
22605;BME280;11469;49.024;8.246;2023-08-06T00:57:29;99503.75;;;16.19;100.00
22605;BME280;11469;49.024;8.246;2023-08-06T00:59:54;99501.28;;;16.21;100.00
22605;BME280;11469;49.024;8.246;2023-08-06T01:02:20;99494.00;;;16.24;100.00
22605;BME280;11469;49.024;8.246;2023-08-06T01:04:45;99482.53;;;16.38;99.08
22605;BME280;11469;49.024;8.246;2023-08-06T01:12:41;99483.56;;;16.51;98.20
22605;BME280;11469;49.024;8.246;2023-08-06T01:15:21;99477.38;;;16.60;97.34
22605;BME280;11469;49.024;8.246;2023-08-06T01:17:48;99474.16;;;16.58;96.62
22605;BME280;11469;49.024;8.246;2023-08-06T01:20:13;99481.00;;;16.60;97.05
22605;BME280;11469;49.024;8.246;2023-08-06T01:22:39;99475.72;;;16.66;95.85
22605;BME280;11469;49.024;8.246;2023-08-06T01:25:05;99476.47;;;16.70;95.16
22605;BME280;11469;49.024;8.246;2023-08-06T01:27:38;99473.16;;;16.75;94.44
22605;BME280;11469;49.024;8.246;2023-08-06T01:30:22;99463.03;;;16.78;93.45
22605;BME280;11469;49.024;8.246;2023-08-06T01:32:53;99460.19;;;16.78;93.21
22605;BME280;11469;49.024;8.246;2023-08-06T01:35:25;99461.47;;;16.73;93.34
22605;BME280;11469;49.024;8.246;2023-08-06T01:37:51;99480.75;;;16.82;93.95
22605;BME280;11469;49.024;8.246;2023-08-06T01:40:16;99481.56;;;16.82;95.72
22605;BME280;11469;49.024;8.246;2023-08-06T01:42:42;99476.03;;;16.72;98.08
22605;BME280;11469;49.024;8.246;2023-08-06T01:45:08;99466.84;;;16.64;100.00
22605;BME280;11469;49.024;8.246;2023-08-06T01:47:33;99471.03;;;16.52;100.00
22605;BME280;11469;49.024;8.246;2023-08-06T01:50:02;99461.03;;;16.44;100.00
22605;BME280;11469;49.024;8.246;2023-08-06T01:52:28;99450.72;;;16.31;100.00
22605;BME280;11469;49.024;8.246;2023-08-06T01:54:54;99458.44;;;16.26;100.00
22605;BME280;11469;49.024;8.246;2023-08-06T01:57:19;99458.94;;;16.18;100.00
22605;BME280;11469;49.024;8.246;2023-08-06T01:59:44;99462.19;;;16.16;100.00
22605;BME280;11469;49.024;8.246;2023-08-06T02:02:10;99470.31;;;16.11;100.00
22605;BME280;11469;49.024;8.246;2023-08-06T02:04:35;99466.81;;;16.03;100.00
22605;BME280;11469;49.024;8.246;2023-08-06T02:07:01;99458.03;;;15.94;100.00
22605;BME280;11469;49.024;8.246;2023-08-06T02:09:26;99459.66;;;15.91;100.00
22605;BME280;11469;49.024;8.246;2023-08-06T02:11:51;99462.56;;;15.84;100.00
22605;BME280;11469;49.024;8.246;2023-08-06T02:14:17;99461.38;;;15.82;100.00
22605;BME280;11469;49.024;8.246;2023-08-06T02:16:42;99458.59;;;15.78;100.00
22605;BME280;11469;49.024;8.246;2023-08-06T02:19:07;99456.56;;;15.79;100.00
22605;BME280;11469;49.024;8.246;2023-08-06T02:21:33;99452.63;;;15.69;100.00
22605;BME280;11469;49.024;8.246;2023-08-06T02:23:58;99458.28;;;15.69;100.00
22605;BME280;11469;49.024;8.246;2023-08-06T02:26:24;99455.94;;;15.60;100.00
22605;BME280;11469;49.024;8.246;2023-08-06T02:28:49;99456.38;;;15.55;100.00
22605;BME280;11469;49.024;8.246;2023-08-06T02:31:14;99462.88;;;15.52;100.00
22605;BME280;11469;49.024;8.246;2023-08-06T02:33:40;99457.22;;;15.52;100.00
22605;BME280;11469;49.024;8.246;2023-08-06T02:36:05;99458.34;;;15.62;100.00
22605;BME280;11469;49.024;8.246;2023-08-06T02:38:31;99451.16;;;15.57;100.00
22605;BME280;11469;49.024;8.246;2023-08-06T02:40:57;99454.78;;;15.54;100.00
22605;BME280;11469;49.024;8.246;2023-08-06T02:43:23;99463.66;;;15.53;100.00
22605;BME280;11469;49.024;8.246;2023-08-06T02:45:48;99452.78;;;15.51;100.00
22605;BME280;11469;49.024;8.246;2023-08-06T02:48:14;99448.44;;;15.43;100.00
22605;BME280;11469;49.024;8.246;2023-08-06T02:50:42;99456.09;;;15.43;100.00
22605;BME280;11469;49.024;8.246;2023-08-06T02:53:08;99461.78;;;15.39;100.00
22605;BME280;11469;49.024;8.246;2023-08-06T02:55:34;99464.66;;;15.32;100.00
22605;BME280;11469;49.024;8.246;2023-08-06T02:58:00;99460.28;;;15.24;100.00
22605;BME280;11469;49.024;8.246;2023-08-06T03:00:26;99465.59;;;15.15;100.00
22605;BME280;11469;49.024;8.246;2023-08-06T03:02:52;99458.72;;;15.16;100.00
22605;BME280;11469;49.024;8.246;2023-08-06T03:05:18;99451.19;;;15.06;100.00
22605;BME280;11469;49.024;8.246;2023-08-06T03:07:43;99454.44;;;15.01;100.00
22605;BME280;11469;49.024;8.246;2023-08-06T03:10:09;99455.25;;;14.98;100.00
22605;BME280;11469;49.024;8.246;2023-08-06T03:12:34;99450.44;;;14.94;100.00
22605;BME280;11469;49.024;8.246;2023-08-06T03:15:00;99442.81;;;14.91;100.00
22605;BME280;11469;49.024;8.246;2023-08-06T03:17:25;99448.50;;;14.84;100.00
22605;BME280;11469;49.024;8.246;2023-08-06T03:19:51;99444.44;;;14.89;100.00
22605;BME280;11469;49.024;8.246;2023-08-06T03:22:16;99453.38;;;14.80;100.00
22605;BME280;11469;49.024;8.246;2023-08-06T03:24:41;99444.50;;;14.78;100.00
22605;BME280;11469;49.024;8.246;2023-08-06T03:27:07;99437.25;;;14.81;100.00
22605;BME280;11469;49.024;8.246;2023-08-06T03:29:32;99453.38;;;14.77;100.00
22605;BME280;11469;49.024;8.246;2023-08-06T03:31:57;99445.72;;;14.77;100.00
22605;BME280;11469;49.024;8.246;2023-08-06T03:34:23;99446.91;;;14.80;100.00
22605;BME280;11469;49.024;8.246;2023-08-06T03:36:48;99451.34;;;14.81;100.00
22605;BME280;11469;49.024;8.246;2023-08-06T03:39:13;99447.34;;;14.78;100.00
22605;BME280;11469;49.024;8.246;2023-08-06T03:41:39;99453.75;;;14.82;100.00
22605;BME280;11469;49.024;8.246;2023-08-06T03:44:05;99441.69;;;14.78;100.00
22605;BME280;11469;49.024;8.246;2023-08-06T03:46:30;99443.72;;;14.74;100.00
22605;BME280;11469;49.024;8.246;2023-08-06T03:49:02;99441.69;;;14.78;100.00
22605;BME280;11469;49.024;8.246;2023-08-06T03:51:28;99440.47;;;14.79;100.00
22605;BME280;11469;49.024;8.246;2023-08-06T03:53:53;99451.34;;;14.81;100.00
22605;BME280;11469;49.024;8.246;2023-08-06T03:56:19;99440.09;;;14.77;100.00
22605;BME280;11469;49.024;8.246;2023-08-06T03:58:44;99442.88;;;14.81;100.00
22605;BME280;11469;49.024;8.246;2023-08-06T04:01:09;99440.03;;;14.84;100.00
22605;BME280;11469;49.024;8.246;2023-08-06T04:03:35;99433.59;;;14.84;100.00
22605;BME280;11469;49.024;8.246;2023-08-06T04:06:04;99442.88;;;14.84;100.00
22605;BME280;11469;49.024;8.246;2023-08-06T04:08:30;99450.50;;;14.87;100.00
22605;BME280;11469;49.024;8.246;2023-08-06T04:10:55;99440.47;;;14.79;100.00
22605;BME280;11469;49.024;8.246;2023-08-06T04:13:21;99449.31;;;14.85;100.00
22605;BME280;11469;49.024;8.246;2023-08-06T04:15:46;99450.94;;;14.82;100.00
22605;BME280;11469;49.024;8.246;2023-08-06T04:18:12;99457.38;;;14.83;100.00
22605;BME280;11469;49.024;8.246;2023-08-06T04:20:47;99451.34;;;14.81;100.00
22605;BME280;11469;49.024;8.246;2023-08-06T04:23:14;99448.50;;;14.84;100.00
22605;BME280;11469;49.024;8.246;2023-08-06T04:25:40;99457.41;;;14.79;100.00
22605;BME280;11469;49.024;8.246;2023-08-06T04:28:06;99454.53;;;14.86;100.00
22605;BME280;11469;49.024;8.246;2023-08-06T04:30:32;99458.16;;;14.87;100.00
22605;BME280;11469;49.024;8.246;2023-08-06T04:32:57;99455.72;;;14.89;100.00
22605;BME280;11469;49.024;8.246;2023-08-06T04:35:25;99458.53;;;14.89;100.00
22605;BME280;11469;49.024;8.246;2023-08-06T04:37:51;99455.28;;;14.94;100.00
22605;BME280;11469;49.024;8.246;2023-08-06T04:40:17;99452.88;;;14.92;100.00
22605;BME280;11469;49.024;8.246;2023-08-06T04:42:42;99455.25;;;14.98;100.00
22605;BME280;11469;49.024;8.246;2023-08-06T04:45:08;99450.41;;;15.02;100.00
22605;BME280;11469;49.024;8.246;2023-08-06T04:47:33;99449.56;;;15.05;100.00
22605;BME280;11469;49.024;8.246;2023-08-06T04:49:59;99440.66;;;15.10;100.00
22605;BME280;11469;49.024;8.246;2023-08-06T04:52:24;99445.00;;;15.18;100.00
22605;BME280;11469;49.024;8.246;2023-08-06T04:54:53;99450.16;;;15.30;100.00
22605;BME280;11469;49.024;8.246;2023-08-06T04:57:18;99448.16;;;15.27;100.00
22605;BME280;11469;49.024;8.246;2023-08-06T04:59:43;99451.00;;;15.27;100.00
22605;BME280;11469;49.024;8.246;2023-08-06T05:02:09;99456.22;;;15.28;100.00
22605;BME280;11469;49.024;8.246;2023-08-06T05:04:34;99458.25;;;15.28;100.00
22605;BME280;11469;49.024;8.246;2023-08-06T05:06:59;99461.50;;;15.23;100.00
22605;BME280;11469;49.024;8.246;2023-08-06T05:09:25;99464.75;;;15.21;100.00
22605;BME280;11469;49.024;8.246;2023-08-06T05:11:51;99461.53;;;15.19;100.00
22605;BME280;11469;49.024;8.246;2023-08-06T05:14:16;99457.13;;;15.15;100.00
22605;BME280;11469;49.024;8.246;2023-08-06T05:16:41;99462.84;;;15.08;100.00
22605;BME280;11469;49.024;8.246;2023-08-06T05:19:07;99465.69;;;15.04;100.00
22605;BME280;11469;49.024;8.246;2023-08-06T05:21:32;99465.72;;;15.01;100.00
22605;BME280;11469;49.024;8.246;2023-08-06T05:23:58;99472.59;;;14.96;100.00
22605;BME280;11469;49.024;8.246;2023-08-06T05:26:23;99467.78;;;14.93;100.00
22605;BME280;11469;49.024;8.246;2023-08-06T05:28:48;99476.66;;;14.91;100.00
22605;BME280;11469;49.024;8.246;2023-08-06T05:31:14;99467.81;;;14.89;100.00
22605;BME280;11469;49.024;8.246;2023-08-06T05:33:39;99476.28;;;14.89;100.00
22605;BME280;11469;49.024;8.246;2023-08-06T05:36:04;99469.47;;;14.83;100.00
22605;BME280;11469;49.024;8.246;2023-08-06T05:38:30;99473.91;;;14.81;100.00
22605;BME280;11469;49.024;8.246;2023-08-06T05:40:55;99488.44;;;14.79;100.00
22605;BME280;11469;49.024;8.246;2023-08-06T05:43:22;99479.97;;;14.76;100.00
22605;BME280;11469;49.024;8.246;2023-08-06T05:45:49;99480.41;;;14.74;100.00
22605;BME280;11469;49.024;8.246;2023-08-06T05:48:15;99478.34;;;14.82;100.00
22605;BME280;11469;49.024;8.246;2023-08-06T05:50:40;99480.34;;;14.85;100.00
22605;BME280;11469;49.024;8.246;2023-08-06T05:53:06;99485.94;;;14.88;100.00
22605;BME280;11469;49.024;8.246;2023-08-06T05:55:32;99482.31;;;14.91;100.00
22605;BME280;11469;49.024;8.246;2023-08-06T05:57:58;99475.44;;;14.96;100.00
22605;BME280;11469;49.024;8.246;2023-08-06T06:00:23;99473.00;;;14.98;100.00
22605;BME280;11469;49.024;8.246;2023-08-06T06:02:49;99474.22;;;14.97;100.00
22605;BME280;11469;49.024;8.246;2023-08-06T06:05:14;99471.38;;;15.01;100.00
22605;BME280;11469;49.024;8.246;2023-08-06T06:07:39;99474.19;;;15.01;100.00
22605;BME280;11469;49.024;8.246;2023-08-06T06:10:05;99475.44;;;14.96;100.00
22605;BME280;11469;49.024;8.246;2023-08-06T06:12:31;99481.03;;;15.00;100.00
22605;BME280;11469;49.024;8.246;2023-08-06T06:14:56;99473.41;;;14.97;100.00
22605;BME280;11469;49.024;8.246;2023-08-06T06:17:21;99485.88;;;14.99;100.00
22605;BME280;11469;49.024;8.246;2023-08-06T06:19:47;99484.66;;;15.00;100.00
22605;BME280;11469;49.024;8.246;2023-08-06T06:22:13;99491.09;;;15.04;100.00
22605;BME280;11469;49.024;8.246;2023-08-06T06:24:39;99492.78;;;14.94;100.00
22605;BME280;11469;49.024;8.246;2023-08-06T06:27:04;99492.75;;;14.98;100.00
22605;BME280;11469;49.024;8.246;2023-08-06T06:29:30;99493.94;;;15.01;100.00
22605;BME280;11469;49.024;8.246;2023-08-06T06:31:55;99499.19;;;14.99;100.00
22605;BME280;11469;49.024;8.246;2023-08-06T06:34:21;99503.22;;;14.98;100.00
22605;BME280;11469;49.024;8.246;2023-08-06T06:36:47;99496.38;;;14.99;100.00
22605;BME280;11469;49.024;8.246;2023-08-06T06:39:12;99493.16;;;14.97;100.00
22605;BME280;11469;49.024;8.246;2023-08-06T06:41:38;99501.16;;;15.05;100.00
22605;BME280;11469;49.024;8.246;2023-08-06T06:44:03;99498.72;;;15.07;100.00
22605;BME280;11469;49.024;8.246;2023-08-06T06:46:29;99496.69;;;15.11;100.00
22605;BME280;11469;49.024;8.246;2023-08-06T06:48:54;99513.22;;;15.09;100.00
22605;BME280;11469;49.024;8.246;2023-08-06T06:51:19;99495.53;;;15.05;100.00
22605;BME280;11469;49.024;8.246;2023-08-06T06:53:45;99489.50;;;15.03;100.00
22605;BME280;11469;49.024;8.246;2023-08-06T06:56:10;99502.38;;;15.04;100.00
22605;BME280;11469;49.024;8.246;2023-08-06T06:58:35;99503.63;;;15.00;100.00
22605;BME280;11469;49.024;8.246;2023-08-06T07:01:01;99506.41;;;15.03;100.00
22605;BME280;11469;49.024;8.246;2023-08-06T07:03:26;99506.00;;;15.05;100.00
22605;BME280;11469;49.024;8.246;2023-08-06T07:05:56;99510.03;;;15.07;100.00
22605;BME280;11469;49.024;8.246;2023-08-06T07:08:22;99516.47;;;15.08;100.00
22605;BME280;11469;49.024;8.246;2023-08-06T07:10:47;99509.94;;;15.14;100.00
22605;BME280;11469;49.024;8.246;2023-08-06T07:13:12;99503.88;;;15.19;100.00
22605;BME280;11469;49.024;8.246;2023-08-06T07:15:38;99508.31;;;15.17;100.00
22605;BME280;11469;49.024;8.246;2023-08-06T07:18:03;99513.47;;;15.29;100.00
22605;BME280;11469;49.024;8.246;2023-08-06T07:20:28;99516.28;;;15.33;100.00
22605;BME280;11469;49.024;8.246;2023-08-06T07:22:57;99515.38;;;15.43;100.00
22605;BME280;11469;49.024;8.246;2023-08-06T07:25:22;99513.41;;;15.40;100.00
22605;BME280;11469;49.024;8.246;2023-08-06T07:27:47;99521.03;;;15.43;100.00
22605;BME280;11469;49.024;8.246;2023-08-06T07:30:13;99522.69;;;15.37;100.00
22605;BME280;11469;49.024;8.246;2023-08-06T07:32:38;99523.44;;;15.44;100.00
22605;BME280;11469;49.024;8.246;2023-08-06T07:35:04;99528.31;;;15.40;100.00
22605;BME280;11469;49.024;8.246;2023-08-06T07:37:29;99525.88;;;15.42;100.00
22605;BME280;11469;49.024;8.246;2023-08-06T07:39:58;99527.50;;;15.40;100.00
22605;BME280;11469;49.024;8.246;2023-08-06T07:42:23;99527.09;;;15.41;100.00
22605;BME280;11469;49.024;8.246;2023-08-06T07:44:55;99532.72;;;15.45;100.00
22605;BME280;11469;49.024;8.246;2023-08-06T07:47:22;99530.69;;;15.45;100.00
22605;BME280;11469;49.024;8.246;2023-08-06T07:49:47;99539.13;;;15.49;100.00
22605;BME280;11469;49.024;8.246;2023-08-06T07:52:13;99532.63;;;15.55;100.00
22605;BME280;11469;49.024;8.246;2023-08-06T07:54:38;99535.06;;;15.57;100.00
22605;BME280;11469;49.024;8.246;2023-08-06T07:57:04;99531.34;;;15.64;100.00
22605;BME280;11469;49.024;8.246;2023-08-06T07:59:29;99533.75;;;15.65;100.00
22605;BME280;11469;49.024;8.246;2023-08-06T08:01:55;99532.25;;;15.53;100.00
22605;BME280;11469;49.024;8.246;2023-08-06T08:04:21;99530.34;;;15.40;100.00
22605;BME280;11469;49.024;8.246;2023-08-06T08:06:47;99537.19;;;15.39;100.00
22605;BME280;11469;49.024;8.246;2023-08-06T08:09:13;99535.16;;;15.43;100.00
22605;BME280;11469;49.024;8.246;2023-08-06T08:11:39;99527.88;;;15.45;100.00
22605;BME280;11469;49.024;8.246;2023-08-06T08:14:04;99526.25;;;15.48;100.00
22605;BME280;11469;49.024;8.246;2023-08-06T08:16:30;99521.34;;;15.55;100.00
22605;BME280;11469;49.024;8.246;2023-08-06T08:18:55;99524.97;;;15.56;100.00
22605;BME280;11469;49.024;8.246;2023-08-06T08:21:21;99525.28;;;15.65;100.00
22605;BME280;11469;49.024;8.246;2023-08-06T08:23:46;99524.88;;;15.67;100.00
22605;BME280;11469;49.024;8.246;2023-08-06T08:26:11;99527.81;;;15.52;100.00
22605;BME280;11469;49.024;8.246;2023-08-06T08:28:37;99526.22;;;15.51;100.00
22605;BME280;11469;49.024;8.246;2023-08-06T08:31:02;99530.25;;;15.50;100.00
22605;BME280;11469;49.024;8.246;2023-08-06T08:33:28;99526.63;;;15.50;100.00
22605;BME280;11469;49.024;8.246;2023-08-06T08:35:53;99535.06;;;15.53;100.00
22605;BME280;11469;49.024;8.246;2023-08-06T08:38:18;99541.91;;;15.59;100.00
22605;BME280;11469;49.024;8.246;2023-08-06T08:40:50;99540.56;;;15.71;100.00
22605;BME280;11469;49.024;8.246;2023-08-06T08:43:19;99536.47;;;15.79;100.00
22605;BME280;11469;49.024;8.246;2023-08-06T08:45:51;99529.09;;;15.92;100.00
22605;BME280;11469;49.024;8.246;2023-08-06T08:48:17;99533.03;;;16.02;100.00
22605;BME280;11469;49.024;8.246;2023-08-06T08:50:47;99534.66;;;16.00;100.00
22605;BME280;11469;49.024;8.246;2023-08-06T08:53:14;99539.91;;;16.01;100.00
22605;BME280;11469;49.024;8.246;2023-08-06T08:55:40;99549.94;;;16.06;100.00
22605;BME280;11469;49.024;8.246;2023-08-06T08:58:07;99545.09;;;16.06;100.00
22605;BME280;11469;49.024;8.246;2023-08-06T09:00:33;99546.25;;;16.09;100.00
22605;BME280;11469;49.024;8.246;2023-08-06T09:03:00;99545.84;;;16.10;100.00
22605;BME280;11469;49.024;8.246;2023-08-06T09:05:28;99542.44;;;16.26;100.00
22605;BME280;11469;49.024;8.246;2023-08-06T09:08:04;99535.00;;;16.43;100.00
22605;BME280;11469;49.024;8.246;2023-08-06T09:10:30;99550.16;;;16.56;100.00
22605;BME280;11469;49.024;8.246;2023-08-06T09:12:57;99563.03;;;16.64;100.00
22605;BME280;11469;49.024;8.246;2023-08-06T09:15:25;99555.34;;;16.65;100.00
22605;BME280;11469;49.024;8.246;2023-08-06T09:17:54;99557.22;;;16.75;100.00
22605;BME280;11469;49.024;8.246;2023-08-06T09:20:20;99562.59;;;16.62;100.00
22605;BME280;11469;49.024;8.246;2023-08-06T09:22:46;99559.41;;;16.60;100.00
22605;BME280;11469;49.024;8.246;2023-08-06T09:25:21;99557.16;;;16.48;100.00
22605;BME280;11469;49.024;8.246;2023-08-06T09:27:47;99560.41;;;16.46;100.00
22605;BME280;11469;49.024;8.246;2023-08-06T09:30:28;99559.25;;;16.40;100.00
22605;BME280;11469;49.024;8.246;2023-08-06T09:32:55;99554.09;;;16.32;100.00
22605;BME280;11469;49.024;8.246;2023-08-06T09:35:21;99571.16;;;16.21;100.00
22605;BME280;11469;49.024;8.246;2023-08-06T09:37:47;99567.50;;;16.24;100.00
22605;BME280;11469;49.024;8.246;2023-08-06T09:40:27;99563.53;;;16.18;100.00
22605;BME280;11469;49.024;8.246;2023-08-06T09:42:52;99567.72;;;16.06;100.00
22605;BME280;11469;49.024;8.246;2023-08-06T09:45:21;99574.78;;;16.21;100.00
22605;BME280;11469;49.024;8.246;2023-08-06T09:47:50;99581.22;;;16.25;100.00
22605;BME280;11469;49.024;8.246;2023-08-06T09:50:19;99576.75;;;16.28;100.00
22605;BME280;11469;49.024;8.246;2023-08-06T09:52:45;99582.38;;;16.32;100.00
22605;BME280;11469;49.024;8.246;2023-08-06T09:55:12;99583.72;;;16.16;100.00
22605;BME280;11469;49.024;8.246;2023-08-06T09:57:38;99592.22;;;16.16;100.00
22605;BME280;11469;49.024;8.246;2023-08-06T10:00:04;99594.69;;;16.11;100.00
22605;BME280;11469;49.024;8.246;2023-08-06T10:02:31;99597.47;;;16.14;100.00
22605;BME280;11469;49.024;8.246;2023-08-06T10:04:58;99603.59;;;16.09;100.00
22605;BME280;11469;49.024;8.246;2023-08-06T10:07:24;99611.78;;;16.00;100.00
22605;BME280;11469;49.024;8.246;2023-08-06T10:09:50;99617.06;;;15.95;100.00
22605;BME280;11469;49.024;8.246;2023-08-06T10:12:16;99624.81;;;15.83;100.00
22605;BME280;11469;49.024;8.246;2023-08-06T10:14:45;99630.50;;;15.80;100.00
22605;BME280;11469;49.024;8.246;2023-08-06T10:17:12;99626.44;;;15.81;100.00
22605;BME280;11469;49.024;8.246;2023-08-06T10:19:38;99631.56;;;15.97;100.00
22605;BME280;11469;49.024;8.246;2023-08-06T10:24:51;99634.81;;;15.95;100.00
22605;BME280;11469;49.024;8.246;2023-08-06T10:27:40;99651.34;;;16.00;100.00
22605;BME280;11469;49.024;8.246;2023-08-06T10:33:03;99646.53;;;15.93;100.00
22605;BME280;11469;49.024;8.246;2023-08-06T10:35:34;99655.19;;;16.17;100.00
22605;BME280;11469;49.024;8.246;2023-08-06T10:40:47;99656.25;;;16.34;100.00
22605;BME280;11469;49.024;8.246;2023-08-06T10:43:32;99650.78;;;16.16;100.00
22605;BME280;11469;49.024;8.246;2023-08-06T10:45:59;99663.75;;;16.10;100.00
22605;BME280;11469;49.024;8.246;2023-08-06T10:48:36;99673.03;;;16.10;100.00
22605;BME280;11469;49.024;8.246;2023-08-06T10:51:02;99666.72;;;15.96;100.00
22605;BME280;11469;49.024;8.246;2023-08-06T10:53:28;99661.53;;;15.87;100.00
22605;BME280;11469;49.024;8.246;2023-08-06T10:55:54;99676.09;;;15.82;100.00
22605;BME280;11469;49.024;8.246;2023-08-06T10:58:19;99681.84;;;15.64;100.00
22605;BME280;11469;49.024;8.246;2023-08-06T11:00:45;99685.09;;;15.63;100.00
22605;BME280;11469;49.024;8.246;2023-08-06T11:03:11;99680.63;;;15.65;100.00
22605;BME280;11469;49.024;8.246;2023-08-06T11:05:36;99698.38;;;15.69;100.00
22605;BME280;11469;49.024;8.246;2023-08-06T11:08:02;99700.00;;;15.67;100.00
22605;BME280;11469;49.024;8.246;2023-08-06T11:10:28;99699.56;;;15.72;100.00
22605;BME280;11469;49.024;8.246;2023-08-06T11:12:53;99702.00;;;15.66;100.00
22605;BME280;11469;49.024;8.246;2023-08-06T11:15:20;99712.13;;;15.64;100.00
22605;BME280;11469;49.024;8.246;2023-08-06T11:17:46;99718.19;;;15.62;100.00
22605;BME280;11469;49.024;8.246;2023-08-06T11:20:11;99709.69;;;15.66;100.00
22605;BME280;11469;49.024;8.246;2023-08-06T11:22:37;99721.31;;;15.78;100.00
22605;BME280;11469;49.024;8.246;2023-08-06T11:25:05;99720.91;;;15.80;100.00
22605;BME280;11469;49.024;8.246;2023-08-06T11:27:31;99726.09;;;15.88;100.00
22605;BME280;11469;49.024;8.246;2023-08-06T11:29:56;99724.47;;;15.87;100.00
22605;BME280;11469;49.024;8.246;2023-08-06T11:32:22;99732.13;;;15.90;100.00
22605;BME280;11469;49.024;8.246;2023-08-06T11:34:47;99724.47;;;15.91;100.00
22605;BME280;11469;49.024;8.246;2023-08-06T11:37:13;99722.84;;;15.90;100.00
22605;BME280;11469;49.024;8.246;2023-08-06T11:39:38;99726.84;;;16.00;100.00
22605;BME280;11469;49.024;8.246;2023-08-06T11:42:05;99734.06;;;16.04;100.00
22605;BME280;11469;49.024;8.246;2023-08-06T11:44:32;99729.91;;;16.16;100.00
22605;BME280;11469;49.024;8.246;2023-08-06T11:46:59;99744.09;;;16.09;98.34
22605;BME280;11469;49.024;8.246;2023-08-06T11:49:46;99740.41;;;16.15;99.51
22605;BME280;11469;49.024;8.246;2023-08-06T11:52:20;99734.75;;;16.15;97.71
22605;BME280;11469;49.024;8.246;2023-08-06T11:55:07;99748.88;;;16.19;96.54
22605;BME280;11469;49.024;8.246;2023-08-06T11:57:36;99742.78;;;16.24;96.18
22605;BME280;11469;49.024;8.246;2023-08-06T12:00:12;99761.81;;;16.16;94.37
22605;BME280;11469;49.024;8.246;2023-08-06T12:02:39;99759.00;;;16.16;96.01
22605;BME280;11469;49.024;8.246;2023-08-06T12:05:13;99750.91;;;16.15;96.75
22605;BME280;11469;49.024;8.246;2023-08-06T12:07:41;99754.25;;;16.06;95.94
22605;BME280;11469;49.024;8.246;2023-08-06T12:10:06;99761.84;;;16.13;97.37
22605;BME280;11469;49.024;8.246;2023-08-06T12:12:32;99757.34;;;16.19;96.38
22605;BME280;11469;49.024;8.246;2023-08-06T12:14:58;99756.09;;;16.23;96.28
22605;BME280;11469;49.024;8.246;2023-08-06T12:17:24;99755.25;;;16.30;96.01
22605;BME280;11469;49.024;8.246;2023-08-06T12:19:50;99746.34;;;16.35;94.35
22605;BME280;11469;49.024;8.246;2023-08-06T12:22:15;99763.66;;;16.41;95.13
22605;BME280;11469;49.024;8.246;2023-08-06T12:24:42;99758.00;;;16.41;93.50
22605;BME280;11469;49.024;8.246;2023-08-06T12:27:08;99762.41;;;16.45;92.87
22605;BME280;11469;49.024;8.246;2023-08-06T12:29:34;99765.13;;;16.56;92.80
22605;BME280;11469;49.024;8.246;2023-08-06T12:31:59;99763.03;;;16.64;92.07
22605;BME280;11469;49.024;8.246;2023-08-06T12:34:24;99770.31;;;16.65;91.92
22605;BME280;11469;49.024;8.246;2023-08-06T12:36:50;99763.41;;;16.69;91.87
22605;BME280;11469;49.024;8.246;2023-08-06T12:39:15;99769.84;;;16.73;91.06
22605;BME280;11469;49.024;8.246;2023-08-06T12:41:41;99780.38;;;16.69;91.68
22605;BME280;11469;49.024;8.246;2023-08-06T12:44:06;99773.19;;;16.57;92.11
22605;BME280;11469;49.024;8.246;2023-08-06T12:46:31;99774.47;;;16.53;92.03
22605;BME280;11469;49.024;8.246;2023-08-06T12:48:57;99773.97;;;16.65;92.37
22605;BME280;11469;49.024;8.246;2023-08-06T12:51:23;99781.88;;;16.84;91.75
22605;BME280;11469;49.024;8.246;2023-08-06T12:53:49;99774.16;;;16.88;89.56
22605;BME280;11469;49.024;8.246;2023-08-06T12:56:14;99780.56;;;16.96;87.53
22605;BME280;11469;49.024;8.246;2023-08-06T12:58:39;99775.91;;;17.13;88.06
22605;BME280;11469;49.024;8.246;2023-08-06T13:01:05;99772.72;;;17.07;86.07
22605;BME280;11469;49.024;8.246;2023-08-06T13:03:30;99787.59;;;17.15;86.94